sensor_id;sensor_type;location;lat;lon;timestamp;pressure;altitude;pressure_sealevel;temperature;humidity
68859;BME280;55864;49.238;8.092;2023-07-31T00:01:05;99371.13;;;18.58;61.00
68859;BME280;55864;49.238;8.092;2023-07-31T00:03:05;99369.31;;;18.59;60.57
68859;BME280;55864;49.238;8.092;2023-07-31T00:05:08;99366.28;;;18.62;60.67
68859;BME280;55864;49.238;8.092;2023-07-31T00:07:08;99355.41;;;18.36;61.20
68859;BME280;55864;49.238;8.092;2023-07-31T00:09:09;99359.63;;;18.45;62.11
68859;BME280;55864;49.238;8.092;2023-07-31T00:11:09;99355.31;;;18.44;61.81
68859;BME280;55864;49.238;8.092;2023-07-31T00:13:10;99351.81;;;18.43;62.17
68859;BME280;55864;49.238;8.092;2023-07-31T00:15:13;99349.84;;;18.52;62.25
68859;BME280;55864;49.238;8.092;2023-07-31T00:17:14;99345.75;;;18.28;62.06
68859;BME280;55864;49.238;8.092;2023-07-31T00:19:14;99350.69;;;18.31;62.33
68859;BME280;55864;49.238;8.092;2023-07-31T00:21:15;99352.28;;;18.26;62.63
68859;BME280;55864;49.238;8.092;2023-07-31T00:23:15;99348.94;;;18.17;63.25
68859;BME280;55864;49.238;8.092;2023-07-31T00:25:16;99353.69;;;18.22;63.18
68859;BME280;55864;49.238;8.092;2023-07-31T00:27:16;99349.47;;;18.06;63.42
68859;BME280;55864;49.238;8.092;2023-07-31T00:29:18;99353.47;;;18.17;62.76
68859;BME280;55864;49.238;8.092;2023-07-31T00:31:20;99347.00;;;18.05;62.90
68859;BME280;55864;49.238;8.092;2023-07-31T00:33:22;99344.97;;;18.07;62.77
68859;BME280;55864;49.238;8.092;2023-07-31T00:35:22;99346.25;;;18.11;62.87
68859;BME280;55864;49.238;8.092;2023-07-31T00:37:23;99341.06;;;18.03;62.99
68859;BME280;55864;49.238;8.092;2023-07-31T00:39:23;99344.38;;;18.11;62.94
68859;BME280;55864;49.238;8.092;2023-07-31T00:41:24;99330.69;;;17.86;63.96
68859;BME280;55864;49.238;8.092;2023-07-31T00:43:25;99331.09;;;17.83;63.92
68859;BME280;55864;49.238;8.092;2023-07-31T00:45:25;99328.53;;;17.97;64.23
68859;BME280;55864;49.238;8.092;2023-07-31T00:47:28;99325.44;;;18.21;63.72
68859;BME280;55864;49.238;8.092;2023-07-31T00:49:28;99330.59;;;18.22;63.49
68859;BME280;55864;49.238;8.092;2023-07-31T00:51:30;99331.50;;;18.08;63.45
68859;BME280;55864;49.238;8.092;2023-07-31T00:53:31;99327.47;;;18.19;63.01
68859;BME280;55864;49.238;8.092;2023-07-31T00:55:31;99332.75;;;18.12;63.48
68859;BME280;55864;49.238;8.092;2023-07-31T00:57:32;99318.72;;;18.25;62.64
68859;BME280;55864;49.238;8.092;2023-07-31T00:59:33;99327.13;;;18.01;63.30
68859;BME280;55864;49.238;8.092;2023-07-31T01:01:34;99323.94;;;18.12;63.91
68859;BME280;55864;49.238;8.092;2023-07-31T01:03:36;99316.03;;;18.18;63.55
68859;BME280;55864;49.238;8.092;2023-07-31T01:05:42;99314.28;;;18.32;62.62
68859;BME280;55864;49.238;8.092;2023-07-31T01:07:49;99314.63;;;18.22;62.14
68859;BME280;55864;49.238;8.092;2023-07-31T01:10:00;99311.16;;;18.28;61.63
68859;BME280;55864;49.238;8.092;2023-07-31T01:12:04;99314.03;;;18.27;61.96
68859;BME280;55864;49.238;8.092;2023-07-31T01:14:07;99314.03;;;18.27;61.35
68859;BME280;55864;49.238;8.092;2023-07-31T01:16:07;99316.47;;;18.22;61.78
68859;BME280;55864;49.238;8.092;2023-07-31T01:18:08;99318.06;;;18.16;61.81
68859;BME280;55864;49.238;8.092;2023-07-31T01:20:12;99312.03;;;18.01;61.93
68859;BME280;55864;49.238;8.092;2023-07-31T01:22:30;99306.03;;;18.20;61.61
68859;BME280;55864;49.238;8.092;2023-07-31T01:24:42;99305.38;;;17.91;62.35
68859;BME280;55864;49.238;8.092;2023-07-31T01:26:56;99305.34;;;18.12;61.76
68859;BME280;55864;49.238;8.092;2023-07-31T01:29:01;99294.41;;;18.00;62.02
68859;BME280;55864;49.238;8.092;2023-07-31T01:31:07;99302.59;;;17.99;62.17
68859;BME280;55864;49.238;8.092;2023-07-31T01:33:08;99298.03;;;17.93;62.39
68859;BME280;55864;49.238;8.092;2023-07-31T01:35:09;99298.03;;;17.93;62.47
68859;BME280;55864;49.238;8.092;2023-07-31T01:37:10;99290.91;;;17.72;62.88
68859;BME280;55864;49.238;8.092;2023-07-31T01:39:11;99289.81;;;18.15;62.13
68859;BME280;55864;49.238;8.092;2023-07-31T01:41:11;99298.59;;;18.09;61.95
68859;BME280;55864;49.238;8.092;2023-07-31T01:43:13;99299.78;;;18.07;62.09
68859;BME280;55864;49.238;8.092;2023-07-31T01:45:14;99294.16;;;18.23;61.66
68859;BME280;55864;49.238;8.092;2023-07-31T01:47:15;99291.59;;;18.02;61.49
68859;BME280;55864;49.238;8.092;2023-07-31T01:49:15;99282.56;;;18.03;61.76
68859;BME280;55864;49.238;8.092;2023-07-31T01:51:16;99283.25;;;17.83;62.03
68859;BME280;55864;49.238;8.092;2023-07-31T01:53:17;99278.63;;;17.92;62.00
68859;BME280;55864;49.238;8.092;2023-07-31T01:55:17;99284.84;;;18.06;61.71
68859;BME280;55864;49.238;8.092;2023-07-31T01:57:18;99280.47;;;17.92;61.85
68859;BME280;55864;49.238;8.092;2023-07-31T01:59:20;99281.66;;;18.17;61.63
68859;BME280;55864;49.238;8.092;2023-07-31T02:01:20;99282.63;;;18.09;61.43
68859;BME280;55864;49.238;8.092;2023-07-31T02:03:21;99284.31;;;18.17;61.59
68859;BME280;55864;49.238;8.092;2023-07-31T02:05:22;99287.41;;;17.93;61.80
68859;BME280;55864;49.238;8.092;2023-07-31T02:07:22;99279.84;;;17.96;61.83
68859;BME280;55864;49.238;8.092;2023-07-31T02:09:23;99282.19;;;17.78;62.80
68859;BME280;55864;49.238;8.092;2023-07-31T02:11:23;99283.53;;;17.95;62.38
68859;BME280;55864;49.238;8.092;2023-07-31T02:13:24;99278.13;;;18.10;61.46
68859;BME280;55864;49.238;8.092;2023-07-31T02:15:27;99278.97;;;17.82;61.72
68859;BME280;55864;49.238;8.092;2023-07-31T02:17:27;99271.63;;;17.84;62.19
68859;BME280;55864;49.238;8.092;2023-07-31T02:19:28;99276.13;;;17.91;62.36
68859;BME280;55864;49.238;8.092;2023-07-31T02:21:29;99274.53;;;17.96;61.99
68859;BME280;55864;49.238;8.092;2023-07-31T02:23:29;99267.72;;;17.87;62.28
68859;BME280;55864;49.238;8.092;2023-07-31T02:25:30;99279.06;;;17.96;61.74
68859;BME280;55864;49.238;8.092;2023-07-31T02:27:30;99264.81;;;18.03;62.19
68859;BME280;55864;49.238;8.092;2023-07-31T02:29:31;99263.78;;;18.04;61.69
68859;BME280;55864;49.238;8.092;2023-07-31T02:31:33;99253.09;;;17.98;62.09
68859;BME280;55864;49.238;8.092;2023-07-31T02:33:33;99247.88;;;18.11;61.39
68859;BME280;55864;49.238;8.092;2023-07-31T02:35:34;99255.50;;;17.93;61.54
68859;BME280;55864;49.238;8.092;2023-07-31T02:37:34;99254.25;;;17.88;62.15
68859;BME280;55864;49.238;8.092;2023-07-31T02:39:35;99263.72;;;17.70;62.71
68859;BME280;55864;49.238;8.092;2023-07-31T02:41:35;99265.91;;;17.88;62.36
68859;BME280;55864;49.238;8.092;2023-07-31T02:43:36;99262.00;;;17.83;62.56
68859;BME280;55864;49.238;8.092;2023-07-31T02:45:37;99266.97;;;17.93;62.18
68859;BME280;55864;49.238;8.092;2023-07-31T02:47:38;99265.72;;;17.89;62.23
68859;BME280;55864;49.238;8.092;2023-07-31T02:49:39;99269.63;;;17.65;62.73
68859;BME280;55864;49.238;8.092;2023-07-31T02:51:40;99260.16;;;17.84;62.30
68859;BME280;55864;49.238;8.092;2023-07-31T02:53:40;99261.34;;;17.81;62.27
68859;BME280;55864;49.238;8.092;2023-07-31T02:55:41;99248.22;;;17.73;62.67
68859;BME280;55864;49.238;8.092;2023-07-31T02:57:41;99252.94;;;17.50;63.11
68859;BME280;55864;49.238;8.092;2023-07-31T02:59:42;99242.91;;;17.73;63.07
68859;BME280;55864;49.238;8.092;2023-07-31T03:01:42;99241.25;;;17.72;63.18
68859;BME280;55864;49.238;8.092;2023-07-31T03:03:44;99254.78;;;17.77;62.74
68859;BME280;55864;49.238;8.092;2023-07-31T03:05:46;99262.53;;;17.51;63.71
68859;BME280;55864;49.238;8.092;2023-07-31T03:07:46;99258.75;;;17.88;62.54
68859;BME280;55864;49.238;8.092;2023-07-31T03:09:47;99260.72;;;17.79;62.51
68859;BME280;55864;49.238;8.092;2023-07-31T03:11:47;99256.88;;;17.82;62.55
68859;BME280;55864;49.238;8.092;2023-07-31T03:13:48;99257.31;;;17.58;63.36
68859;BME280;55864;49.238;8.092;2023-07-31T03:15:48;99260.53;;;17.53;63.06
68859;BME280;55864;49.238;8.092;2023-07-31T03:17:49;99248.84;;;17.75;63.19
68859;BME280;55864;49.238;8.092;2023-07-31T03:19:51;99243.72;;;17.74;63.17
68859;BME280;55864;49.238;8.092;2023-07-31T03:21:51;99250.06;;;18.01;62.46
68859;BME280;55864;49.238;8.092;2023-07-31T03:23:52;99252.16;;;18.12;61.65
68859;BME280;55864;49.238;8.092;2023-07-31T03:25:56;99256.22;;;18.08;61.89
68859;BME280;55864;49.238;8.092;2023-07-31T03:27:57;99251.06;;;18.00;62.20
68859;BME280;55864;49.238;8.092;2023-07-31T03:29:57;99254.59;;;18.07;62.16
68859;BME280;55864;49.238;8.092;2023-07-31T03:31:58;99251.25;;;17.98;62.11
68859;BME280;55864;49.238;8.092;2023-07-31T03:33:59;99250.09;;;17.79;62.63
68859;BME280;55864;49.238;8.092;2023-07-31T03:36:01;99247.53;;;17.65;62.97
68859;BME280;55864;49.238;8.092;2023-07-31T03:38:01;99255.53;;;17.71;63.09
68859;BME280;55864;49.238;8.092;2023-07-31T03:40:02;99249.41;;;17.99;62.29
68859;BME280;55864;49.238;8.092;2023-07-31T03:42:06;99251.31;;;17.77;62.93
68859;BME280;55864;49.238;8.092;2023-07-31T03:44:06;99252.81;;;17.86;62.68
68859;BME280;55864;49.238;8.092;2023-07-31T03:46:07;99255.03;;;17.82;62.80
68859;BME280;55864;49.238;8.092;2023-07-31T03:48:07;99256.69;;;17.83;62.59
68859;BME280;55864;49.238;8.092;2023-07-31T03:50:08;99255.03;;;17.82;62.81
68859;BME280;55864;49.238;8.092;2023-07-31T03:52:10;99253.59;;;17.80;63.24
68859;BME280;55864;49.238;8.092;2023-07-31T03:54:11;99257.22;;;17.72;63.41
68859;BME280;55864;49.238;8.092;2023-07-31T03:56:12;99254.97;;;17.76;64.10
68859;BME280;55864;49.238;8.092;2023-07-31T03:58:12;99261.16;;;17.55;64.43
68859;BME280;55864;49.238;8.092;2023-07-31T04:00:13;99263.06;;;17.61;64.55
68859;BME280;55864;49.238;8.092;2023-07-31T04:02:15;99262.13;;;17.75;63.88
68859;BME280;55864;49.238;8.092;2023-07-31T04:04:16;99256.19;;;17.73;63.42
68859;BME280;55864;49.238;8.092;2023-07-31T04:06:16;99259.38;;;17.62;63.50
68859;BME280;55864;49.238;8.092;2023-07-31T04:08:18;99252.56;;;17.53;63.75
68859;BME280;55864;49.238;8.092;2023-07-31T04:10:19;99254.88;;;17.63;63.72
68859;BME280;55864;49.238;8.092;2023-07-31T04:12:19;99250.97;;;17.59;63.47
68859;BME280;55864;49.238;8.092;2023-07-31T04:14:21;99246.88;;;17.84;62.98
68859;BME280;55864;49.238;8.092;2023-07-31T04:16:21;99245.94;;;17.98;62.48
68859;BME280;55864;49.238;8.092;2023-07-31T04:18:24;99251.34;;;17.83;63.46
68859;BME280;55864;49.238;8.092;2023-07-31T04:20:25;99257.72;;;17.89;64.30
68859;BME280;55864;49.238;8.092;2023-07-31T04:22:25;99250.16;;;17.86;64.49
68859;BME280;55864;49.238;8.092;2023-07-31T04:24:27;99256.66;;;17.77;65.08
68859;BME280;55864;49.238;8.092;2023-07-31T04:26:28;99261.22;;;17.90;64.92
68859;BME280;55864;49.238;8.092;2023-07-31T04:28:28;99249.91;;;17.81;65.45
68859;BME280;55864;49.238;8.092;2023-07-31T04:30:29;99243.53;;;17.75;65.42
68859;BME280;55864;49.238;8.092;2023-07-31T04:32:29;99245.19;;;17.76;65.48
68859;BME280;55864;49.238;8.092;2023-07-31T04:34:30;99245.59;;;17.52;66.30
68859;BME280;55864;49.238;8.092;2023-07-31T04:36:30;99242.91;;;17.73;66.01
68859;BME280;55864;49.238;8.092;2023-07-31T04:38:31;99244.22;;;17.84;65.32
68859;BME280;55864;49.238;8.092;2023-07-31T04:40:33;99246.03;;;17.83;64.93
68859;BME280;55864;49.238;8.092;2023-07-31T04:42:33;99240.63;;;17.98;63.68
68859;BME280;55864;49.238;8.092;2023-07-31T04:44:34;99229.59;;;17.73;63.81
68859;BME280;55864;49.238;8.092;2023-07-31T04:46:35;99236.72;;;17.66;63.86
68859;BME280;55864;49.238;8.092;2023-07-31T04:48:35;99236.63;;;17.81;63.57
68859;BME280;55864;49.238;8.092;2023-07-31T04:50:36;99225.44;;;17.58;63.85
68859;BME280;55864;49.238;8.092;2023-07-31T04:52:36;99233.31;;;17.79;63.29
68859;BME280;55864;49.238;8.092;2023-07-31T04:54:37;99232.31;;;17.80;63.41
68859;BME280;55864;49.238;8.092;2023-07-31T04:56:39;99238.94;;;17.91;62.85
68859;BME280;55864;49.238;8.092;2023-07-31T04:58:39;99230.59;;;17.94;62.85
68859;BME280;55864;49.238;8.092;2023-07-31T05:00:40;99240.44;;;18.00;62.64
68859;BME280;55864;49.238;8.092;2023-07-31T05:02:40;99233.28;;;18.00;62.69
68859;BME280;55864;49.238;8.092;2023-07-31T05:04:41;99231.66;;;18.06;62.84
68859;BME280;55864;49.238;8.092;2023-07-31T05:06:42;99237.47;;;18.16;62.90
68859;BME280;55864;49.238;8.092;2023-07-31T05:08:42;99223.03;;;18.38;61.46
68859;BME280;55864;49.238;8.092;2023-07-31T05:10:43;99217.34;;;18.41;61.59
68859;BME280;55864;49.238;8.092;2023-07-31T05:12:45;99219.63;;;18.44;60.97
68859;BME280;55864;49.238;8.092;2023-07-31T05:14:46;99225.03;;;18.23;62.21
68859;BME280;55864;49.238;8.092;2023-07-31T05:16:46;99217.91;;;18.30;62.13
68859;BME280;55864;49.238;8.092;2023-07-31T05:18:47;99211.72;;;18.23;62.56
68859;BME280;55864;49.238;8.092;2023-07-31T05:20:47;99204.84;;;18.35;62.22
68859;BME280;55864;49.238;8.092;2023-07-31T05:22:48;99212.97;;;18.20;62.29
68859;BME280;55864;49.238;8.092;2023-07-31T05:24:49;99209.72;;;18.31;62.07
68859;BME280;55864;49.238;8.092;2023-07-31T05:26:49;99223.75;;;18.46;61.44
68859;BME280;55864;49.238;8.092;2023-07-31T05:28:51;99221.09;;;18.53;61.47
68859;BME280;55864;49.238;8.092;2023-07-31T05:30:52;99219.06;;;18.55;61.24
68859;BME280;55864;49.238;8.092;2023-07-31T05:32:58;99224.63;;;18.60;61.01
68859;BME280;55864;49.238;8.092;2023-07-31T05:34:59;99224.00;;;18.58;61.03
68859;BME280;55864;49.238;8.092;2023-07-31T05:36:59;99213.31;;;18.51;61.45
68859;BME280;55864;49.238;8.092;2023-07-31T05:39:00;99217.81;;;18.44;61.39
68859;BME280;55864;49.238;8.092;2023-07-31T05:41:00;99217.22;;;18.49;61.20
68859;BME280;55864;49.238;8.092;2023-07-31T05:43:01;99216.41;;;18.55;61.45
68859;BME280;55864;49.238;8.092;2023-07-31T05:45:04;99213.56;;;18.63;61.08
68859;BME280;55864;49.238;8.092;2023-07-31T05:47:05;99207.41;;;18.56;61.45
68859;BME280;55864;49.238;8.092;2023-07-31T05:49:07;99204.28;;;18.46;61.87
68859;BME280;55864;49.238;8.092;2023-07-31T05:51:07;99208.00;;;18.51;61.59
68859;BME280;55864;49.238;8.092;2023-07-31T05:53:08;99201.88;;;18.57;61.22
68859;BME280;55864;49.238;8.092;2023-07-31T05:55:08;99201.69;;;18.59;61.39
68859;BME280;55864;49.238;8.092;2023-07-31T05:57:09;99207.88;;;18.66;61.61
68859;BME280;55864;49.238;8.092;2023-07-31T05:59:10;99201.31;;;18.68;61.24
68859;BME280;55864;49.238;8.092;2023-07-31T06:01:11;99198.28;;;18.91;61.03
68859;BME280;55864;49.238;8.092;2023-07-31T06:03:12;99202.56;;;18.72;60.97
68859;BME280;55864;49.238;8.092;2023-07-31T06:05:13;99192.97;;;18.85;60.78
68859;BME280;55864;49.238;8.092;2023-07-31T06:07:13;99204.84;;;18.82;61.14
68859;BME280;55864;49.238;8.092;2023-07-31T06:09:14;99213.50;;;19.04;60.47
68859;BME280;55864;49.238;8.092;2023-07-31T06:11:14;99215.06;;;18.85;61.22
68859;BME280;55864;49.238;8.092;2023-07-31T06:13:15;99206.50;;;19.03;60.93
68859;BME280;55864;49.238;8.092;2023-07-31T06:15:15;99209.59;;;19.00;60.93
68859;BME280;55864;49.238;8.092;2023-07-31T06:17:17;99216.97;;;18.98;60.73
68859;BME280;55864;49.238;8.092;2023-07-31T06:19:18;99220.00;;;18.88;61.42
68859;BME280;55864;49.238;8.092;2023-07-31T06:21:18;99219.56;;;18.78;62.72
68859;BME280;55864;49.238;8.092;2023-07-31T06:23:19;99228.63;;;18.90;61.73
68859;BME280;55864;49.238;8.092;2023-07-31T06:25:19;99208.75;;;18.86;61.35
68859;BME280;55864;49.238;8.092;2023-07-31T06:27:20;99208.25;;;18.56;62.60
68859;BME280;55864;49.238;8.092;2023-07-31T06:29:21;99202.72;;;18.64;61.80
68859;BME280;55864;49.238;8.092;2023-07-31T06:31:21;99201.50;;;18.67;62.38
68859;BME280;55864;49.238;8.092;2023-07-31T06:33:23;99197.03;;;18.74;61.86
68859;BME280;55864;49.238;8.092;2023-07-31T06:35:24;99194.81;;;18.84;61.38
68859;BME280;55864;49.238;8.092;2023-07-31T06:37:24;99198.88;;;18.73;62.46
68859;BME280;55864;49.238;8.092;2023-07-31T06:39:25;99192.56;;;18.81;62.94
68859;BME280;55864;49.238;8.092;2023-07-31T06:41:25;99201.13;;;18.76;63.15
68859;BME280;55864;49.238;8.092;2023-07-31T06:43:27;99197.72;;;19.15;61.90
68859;BME280;55864;49.238;8.092;2023-07-31T06:45:28;99201.41;;;19.14;61.87
68859;BME280;55864;49.238;8.092;2023-07-31T06:47:28;99204.88;;;19.02;62.29
68859;BME280;55864;49.238;8.092;2023-07-31T06:49:31;99207.78;;;19.20;62.17
68859;BME280;55864;49.238;8.092;2023-07-31T06:51:32;99199.56;;;19.21;61.87
68859;BME280;55864;49.238;8.092;2023-07-31T06:53:32;99197.72;;;19.09;62.44
68859;BME280;55864;49.238;8.092;2023-07-31T06:55:33;99203.31;;;19.33;61.58
68859;BME280;55864;49.238;8.092;2023-07-31T06:57:33;99189.78;;;19.48;61.50
68859;BME280;55864;49.238;8.092;2023-07-31T06:59:34;99187.53;;;19.58;61.31
68859;BME280;55864;49.238;8.092;2023-07-31T07:01:35;99189.16;;;19.65;60.75
68859;BME280;55864;49.238;8.092;2023-07-31T07:03:35;99187.69;;;19.76;59.71
68859;BME280;55864;49.238;8.092;2023-07-31T07:05:37;99187.69;;;19.76;59.57
68859;BME280;55864;49.238;8.092;2023-07-31T07:07:38;99182.19;;;19.78;60.06
68859;BME280;55864;49.238;8.092;2023-07-31T07:09:38;99185.25;;;19.75;60.15
68859;BME280;55864;49.238;8.092;2023-07-31T07:11:39;99181.97;;;19.79;60.68
68859;BME280;55864;49.238;8.092;2023-07-31T07:13:39;99185.19;;;20.01;59.92
68859;BME280;55864;49.238;8.092;2023-07-31T07:15:40;99178.19;;;20.13;59.29
68859;BME280;55864;49.238;8.092;2023-07-31T07:17:40;99186.63;;;20.10;59.29
68859;BME280;55864;49.238;8.092;2023-07-31T07:19:41;99179.41;;;20.10;59.84
68859;BME280;55864;49.238;8.092;2023-07-31T07:21:43;99184.34;;;20.20;59.30
68859;BME280;55864;49.238;8.092;2023-07-31T07:23:43;99176.72;;;20.30;58.39
68859;BME280;55864;49.238;8.092;2023-07-31T07:25:45;99177.81;;;20.60;58.52
68859;BME280;55864;49.238;8.092;2023-07-31T07:27:45;99184.59;;;20.63;58.41
68859;BME280;55864;49.238;8.092;2023-07-31T07:29:46;99172.81;;;20.77;58.52
68859;BME280;55864;49.238;8.092;2023-07-31T07:31:47;99164.47;;;20.98;57.36
68859;BME280;55864;49.238;8.092;2023-07-31T07:33:47;99165.50;;;20.97;56.41
68859;BME280;55864;49.238;8.092;2023-07-31T07:35:48;99161.63;;;20.93;56.46
68859;BME280;55864;49.238;8.092;2023-07-31T07:37:49;99165.19;;;20.80;56.72
68859;BME280;55864;49.238;8.092;2023-07-31T07:39:50;99165.84;;;20.76;57.06
68859;BME280;55864;49.238;8.092;2023-07-31T07:41:50;99169.91;;;20.78;56.60
68859;BME280;55864;49.238;8.092;2023-07-31T07:43:51;99171.03;;;20.64;57.23
68859;BME280;55864;49.238;8.092;2023-07-31T07:45:51;99169.13;;;20.71;57.76
68859;BME280;55864;49.238;8.092;2023-07-31T07:47:52;99161.19;;;20.65;58.08
68859;BME280;55864;49.238;8.092;2023-07-31T07:49:53;99168.72;;;20.74;57.90
68859;BME280;55864;49.238;8.092;2023-07-31T07:51:53;99175.47;;;20.77;57.37
68859;BME280;55864;49.238;8.092;2023-07-31T07:53:55;99177.03;;;20.53;57.84
68859;BME280;55864;49.238;8.092;2023-07-31T07:55:56;99176.66;;;20.43;58.22
68859;BME280;55864;49.238;8.092;2023-07-31T07:57:56;99170.66;;;20.60;57.57
68859;BME280;55864;49.238;8.092;2023-07-31T07:59:57;99172.19;;;20.37;58.52
68859;BME280;55864;49.238;8.092;2023-07-31T08:01:57;99170.28;;;20.50;58.37
68859;BME280;55864;49.238;8.092;2023-07-31T08:03:58;99164.63;;;20.72;57.40
68859;BME280;55864;49.238;8.092;2023-07-31T08:05:59;99165.91;;;20.94;56.58
68859;BME280;55864;49.238;8.092;2023-07-31T08:07:59;99163.03;;;21.02;56.71
68859;BME280;55864;49.238;8.092;2023-07-31T08:10:01;99165.53;;;20.90;56.46
68859;BME280;55864;49.238;8.092;2023-07-31T08:12:04;99166.75;;;20.94;56.62
68859;BME280;55864;49.238;8.092;2023-07-31T08:14:05;99175.44;;;21.21;55.45
68859;BME280;55864;49.238;8.092;2023-07-31T08:16:06;99157.69;;;21.51;54.65
68859;BME280;55864;49.238;8.092;2023-07-31T08:18:06;99158.03;;;21.61;54.64
68859;BME280;55864;49.238;8.092;2023-07-31T08:20:08;99154.81;;;21.28;54.94
68859;BME280;55864;49.238;8.092;2023-07-31T08:22:08;99155.94;;;21.63;53.37
68859;BME280;55864;49.238;8.092;2023-07-31T08:24:09;99155.78;;;21.33;53.83
68859;BME280;55864;49.238;8.092;2023-07-31T08:26:15;99150.06;;;21.73;53.98
68859;BME280;55864;49.238;8.092;2023-07-31T08:28:16;99129.56;;;21.91;53.67
68859;BME280;55864;49.238;8.092;2023-07-31T08:30:17;99129.19;;;22.06;52.98
68859;BME280;55864;49.238;8.092;2023-07-31T08:32:17;99127.84;;;22.15;53.29
68859;BME280;55864;49.238;8.092;2023-07-31T08:34:18;99127.91;;;21.90;53.08
68859;BME280;55864;49.238;8.092;2023-07-31T08:36:18;99123.91;;;22.47;52.84
68859;BME280;55864;49.238;8.092;2023-07-31T08:38:19;99128.88;;;22.91;51.46
68859;BME280;55864;49.238;8.092;2023-07-31T08:40:20;99123.09;;;23.06;51.81
68859;BME280;55864;49.238;8.092;2023-07-31T08:42:21;99128.97;;;22.85;50.86
68859;BME280;55864;49.238;8.092;2023-07-31T08:44:22;99127.53;;;22.71;50.56
68859;BME280;55864;49.238;8.092;2023-07-31T08:46:23;99119.63;;;22.46;51.57
68859;BME280;55864;49.238;8.092;2023-07-31T08:48:26;99119.03;;;22.26;52.07
68859;BME280;55864;49.238;8.092;2023-07-31T08:50:27;99125.16;;;22.33;52.49
68859;BME280;55864;49.238;8.092;2023-07-31T08:52:28;99126.53;;;22.54;52.56
68859;BME280;55864;49.238;8.092;2023-07-31T08:54:29;99123.56;;;22.43;51.60
68859;BME280;55864;49.238;8.092;2023-07-31T08:56:31;99116.91;;;22.64;51.48
68859;BME280;55864;49.238;8.092;2023-07-31T08:58:35;99120.22;;;22.78;51.72
68859;BME280;55864;49.238;8.092;2023-07-31T09:00:37;99112.41;;;22.76;51.63
68859;BME280;55864;49.238;8.092;2023-07-31T09:02:43;99107.25;;;22.45;51.71
68859;BME280;55864;49.238;8.092;2023-07-31T09:04:45;99110.13;;;22.32;52.80
68859;BME280;55864;49.238;8.092;2023-07-31T09:06:47;99107.75;;;22.24;52.48
68859;BME280;55864;49.238;8.092;2023-07-31T09:08:49;99095.19;;;22.24;52.58
68859;BME280;55864;49.238;8.092;2023-07-31T09:10:49;99112.06;;;22.55;52.63
68859;BME280;55864;49.238;8.092;2023-07-31T09:12:51;99100.13;;;22.57;52.32
68859;BME280;55864;49.238;8.092;2023-07-31T09:14:55;99097.22;;;22.59;52.05
68859;BME280;55864;49.238;8.092;2023-07-31T09:16:58;99099.53;;;22.37;52.57
68859;BME280;55864;49.238;8.092;2023-07-31T09:19:00;99087.38;;;22.53;52.39
68859;BME280;55864;49.238;8.092;2023-07-31T09:21:01;99087.94;;;22.43;52.57
68859;BME280;55864;49.238;8.092;2023-07-31T09:23:06;99096.47;;;22.04;53.30
68859;BME280;55864;49.238;8.092;2023-07-31T09:25:17;99094.53;;;22.11;52.99
68859;BME280;55864;49.238;8.092;2023-07-31T09:27:18;99087.09;;;22.13;52.96
68859;BME280;55864;49.238;8.092;2023-07-31T09:29:19;99092.91;;;22.10;53.01
68859;BME280;55864;49.238;8.092;2023-07-31T09:31:31;99080.19;;;22.05;53.87
68859;BME280;55864;49.238;8.092;2023-07-31T09:33:32;99078.03;;;22.43;53.11
68859;BME280;55864;49.238;8.092;2023-07-31T09:35:33;99081.31;;;22.45;53.03
68859;BME280;55864;49.238;8.092;2023-07-31T09:37:34;99087.09;;;22.61;52.86
68859;BME280;55864;49.238;8.092;2023-07-31T09:39:46;99086.28;;;22.60;52.64
68859;BME280;55864;49.238;8.092;2023-07-31T09:41:48;99084.28;;;22.97;51.47
68859;BME280;55864;49.238;8.092;2023-07-31T09:43:53;99069.50;;;23.17;50.41
68859;BME280;55864;49.238;8.092;2023-07-31T09:45:55;99073.44;;;23.03;49.92
68859;BME280;55864;49.238;8.092;2023-07-31T09:47:57;99068.25;;;23.31;49.28
68859;BME280;55864;49.238;8.092;2023-07-31T09:49:58;99072.16;;;22.94;49.85
68859;BME280;55864;49.238;8.092;2023-07-31T09:51:59;99071.31;;;22.71;50.50
68859;BME280;55864;49.238;8.092;2023-07-31T09:54:00;99072.50;;;23.09;50.25
68859;BME280;55864;49.238;8.092;2023-07-31T09:56:02;99068.47;;;23.30;49.46
68859;BME280;55864;49.238;8.092;2023-07-31T09:58:04;99061.94;;;23.38;49.59
68859;BME280;55864;49.238;8.092;2023-07-31T10:00:06;99074.38;;;22.97;50.00
68859;BME280;55864;49.238;8.092;2023-07-31T10:02:15;99065.19;;;23.16;49.03
68859;BME280;55864;49.238;8.092;2023-07-31T10:04:28;99065.09;;;23.46;48.91
68859;BME280;55864;49.238;8.092;2023-07-31T10:06:30;99051.94;;;23.33;49.79
68859;BME280;55864;49.238;8.092;2023-07-31T10:08:34;99054.13;;;23.59;49.01
68859;BME280;55864;49.238;8.092;2023-07-31T10:10:37;99049.97;;;24.03;46.66
68859;BME280;55864;49.238;8.092;2023-07-31T10:12:41;99059.00;;;23.74;47.74
68859;BME280;55864;49.238;8.092;2023-07-31T10:14:44;99048.47;;;23.84;47.37
68859;BME280;55864;49.238;8.092;2023-07-31T10:16:45;99052.91;;;23.78;47.79
68859;BME280;55864;49.238;8.092;2023-07-31T10:18:46;99043.25;;;23.66;47.14
68859;BME280;55864;49.238;8.092;2023-07-31T10:20:49;99038.66;;;24.29;46.48
68859;BME280;55864;49.238;8.092;2023-07-31T10:22:51;99035.22;;;24.62;45.31
68859;BME280;55864;49.238;8.092;2023-07-31T10:24:52;99041.72;;;24.77;45.23
68859;BME280;55864;49.238;8.092;2023-07-31T10:26:57;99039.31;;;25.14;43.96
68859;BME280;55864;49.238;8.092;2023-07-31T10:29:00;99035.09;;;25.01;43.94
68859;BME280;55864;49.238;8.092;2023-07-31T10:31:01;99035.09;;;25.01;44.76
68859;BME280;55864;49.238;8.092;2023-07-31T10:33:03;99018.72;;;25.03;44.91
68859;BME280;55864;49.238;8.092;2023-07-31T10:35:06;99024.72;;;24.60;45.42
68859;BME280;55864;49.238;8.092;2023-07-31T10:37:22;99038.16;;;24.60;44.94
68859;BME280;55864;49.238;8.092;2023-07-31T10:39:36;99027.25;;;24.67;44.22
68859;BME280;55864;49.238;8.092;2023-07-31T10:41:36;99031.69;;;24.89;44.10
68859;BME280;55864;49.238;8.092;2023-07-31T10:43:37;99037.13;;;24.78;44.93